Terminal Aerodrome Forecast
Issued by NWS Cleveland, OH

Home | Current Version | Previous Version | Text Only | Print | Product List | Glossary On
Versions: 1 2 3 4 5 6 7 8 9 10 11 12 13 14 15 16 17 18 19
000
FTUS41 KCLE 282332
TAFYNG
TAF
KYNG 282332Z 2900/2924 18010KT P6SM VCTS BKN035CB BKN050
      TEMPO 2900/2904 VRB20G35KT 2SM -TSRA OVC012CB
     FM290400 25010KT 6SM -SHRA OVC025
     FM290900 25010KT P6SM BKN025 OVC040
     FM291500 25010KT P6SM SCT040=

USA.gov is the U.S. government's official web portal to all federal, state and local government web resources and services.